Time;durP1;ratioP1;P1;durP2;ratioP2;P2;SDS_P1;SDS_P2;PMS_P1;PMS_P2;Temp;Humidity;BMP_temperature;BMP_pressure;BME280_temperature;BME280_humidity;BME280_pressure;Samples;Min_cycle;Max_cycle;Signal;HPM_P1;HPM_P2
2022/12/06 00:02:23;;;;;;;26.23;12.00;;;2.50;99.90;;;;;;4982836;28;20783;-85
2022/12/06 00:04:53;;;;;;;19.33;11.17;;;2.50;99.90;;;;;;4982069;28;20246;-83
2022/12/06 00:07:20;;;;;;;17.93;10.60;;;2.50;99.90;;;;;;4979298;28;20628;-84
2022/12/06 00:09:47;;;;;;;92.63;14.83;;;2.50;99.90;;;;;;4970798;28;20381;-84
2022/12/06 00:12:14;;;;;;;17.90;11.23;;;2.60;99.90;;;;;;4976053;28;20316;-84
2022/12/06 00:14:42;;;;;;;21.00;11.00;;;2.50;99.90;;;;;;4975022;28;20226;-83
2022/12/06 00:17:09;;;;;;;24.13;13.23;;;2.50;99.90;;;;;;4974164;28;20228;-83
2022/12/06 00:19:35;;;;;;;15.93;10.53;;;2.60;99.90;;;;;;4977562;28;20233;-83
2022/12/06 00:22:05;;;;;;;15.03;10.60;;;2.60;99.90;;;;;;4978838;28;20656;-85
2022/12/06 00:24:35;;;;;;;17.67;11.20;;;2.60;99.90;;;;;;4980448;28;20861;-84
2022/12/06 00:27:01;;;;;;;18.80;11.70;;;2.60;99.90;;;;;;4956833;28;20601;-84
2022/12/06 00:29:28;;;;;;;24.47;11.90;;;2.60;99.90;;;;;;4966828;28;20910;-84
2022/12/06 00:31:55;;;;;;;19.13;12.20;;;2.60;99.90;;;;;;4978345;28;20219;-83
2022/12/06 00:34:21;;;;;;;17.00;11.27;;;2.60;99.90;;;;;;4982867;28;20349;-83
2022/12/06 00:36:50;;;;;;;17.90;11.43;;;2.70;99.90;;;;;;4981985;28;20234;-84
2022/12/06 00:39:18;;;;;;;27.80;12.73;;;2.70;99.90;;;;;;4978777;28;20215;-82
2022/12/06 00:41:47;;;;;;;27.17;12.83;;;2.70;99.90;;;;;;4975789;28;20236;-83
2022/12/06 00:44:15;;;;;;;22.40;12.17;;;2.70;99.90;;;;;;4979165;28;20238;-83
2022/12/06 00:46:42;;;;;;;26.73;12.27;;;2.70;99.90;;;;;;4974315;28;20452;-83
2022/12/06 00:49:09;;;;;;;23.23;13.77;;;2.70;99.90;;;;;;4974424;28;20220;-85
2022/12/06 00:51:39;;;;;;;20.67;13.27;;;2.70;99.90;;;;;;4970567;28;20285;-83
2022/12/06 00:54:07;;;;;;;22.33;12.77;;;2.80;99.90;;;;;;4987813;28;20732;-83
2022/12/06 00:56:36;;;;;;;17.77;11.40;;;2.80;99.90;;;;;;4979049;28;20245;-84
2022/12/06 00:59:04;;;;;;;19.27;12.43;;;2.80;99.90;;;;;;4972917;28;20782;-84
2022/12/06 01:01:32;;;;;;;21.90;12.23;;;2.80;99.90;;;;;;4988423;28;20229;-84
2022/12/06 01:04:01;;;;;;;27.23;12.53;;;2.80;99.90;;;;;;4994139;28;20237;-84
2022/12/06 01:06:32;;;;;;;28.27;13.53;;;2.80;99.90;;;;;;4981103;28;20230;-84
2022/12/06 01:09:02;;;;;;;20.57;11.57;;;2.80;99.90;;;;;;4974206;28;20223;-85
2022/12/06 01:11:32;;;;;;;19.20;12.43;;;2.80;99.90;;;;;;4985150;28;20229;-84
2022/12/06 01:14:00;;;;;;;17.60;12.07;;;2.80;99.90;;;;;;4976543;28;20309;-85
2022/12/06 01:16:29;;;;;;;21.60;13.47;;;2.80;99.90;;;;;;4980962;28;20223;-84
2022/12/06 01:19:00;;;;;;;19.47;12.43;;;2.70;99.90;;;;;;4978547;28;20222;-84
2022/12/06 01:21:29;;;;;;;20.33;12.47;;;2.70;99.90;;;;;;4977477;28;20284;-83
2022/12/06 01:23:57;;;;;;;21.33;12.00;;;2.70;99.90;;;;;;4979675;28;20249;-85
2022/12/06 01:26:26;;;;;;;22.87;13.07;;;2.70;99.90;;;;;;4979539;28;21252;-85
2022/12/06 01:28:55;;;;;;;22.47;13.20;;;2.70;99.90;;;;;;4981452;28;20229;-84
2022/12/06 01:31:26;;;;;;;19.83;11.93;;;2.70;99.90;;;;;;4977520;28;20229;-84
2022/12/06 01:33:53;;;;;;;33.37;13.00;;;2.70;99.90;;;;;;4977043;28;20287;-84
2022/12/06 01:36:23;;;;;;;23.17;13.50;;;2.70;99.90;;;;;;4972467;28;20219;-83
2022/12/06 01:38:51;;;;;;;63.60;14.50;;;2.80;99.90;;;;;;4971021;28;20449;-83
2022/12/06 01:41:18;;;;;;;28.60;14.60;;;2.70;99.90;;;;;;4979382;28;20237;-84
2022/12/06 01:43:45;;;;;;;27.03;14.43;;;2.70;99.90;;;;;;4977731;28;20352;-83
2022/12/06 01:46:24;;;;;;;21.83;12.40;;;2.80;99.90;;;;;;4971720;28;20868;-84
2022/12/06 01:49:02;;;;;;;25.53;13.77;;;2.80;99.90;;;;;;4975695;28;20226;-84
2022/12/06 01:51:31;;;;;;;26.27;14.30;;;2.80;99.90;;;;;;4974645;28;20324;-84
2022/12/06 01:53:59;;;;;;;20.30;12.43;;;2.80;99.90;;;;;;4970396;28;20384;-83
2022/12/06 01:56:26;;;;;;;20.53;12.53;;;2.80;99.90;;;;;;4977408;28;20432;-83
2022/12/06 01:58:58;;;;;;;24.67;13.80;;;2.90;99.90;;;;;;4976834;28;20233;-83
2022/12/06 02:01:26;;;;;;;60.27;15.17;;;2.80;99.90;;;;;;4972559;28;20276;-83
2022/12/06 02:03:58;;;;;;;20.10;12.63;;;2.90;99.90;;;;;;4977662;28;20284;-84
2022/12/06 02:06:25;;;;;;;25.30;13.73;;;2.90;99.90;;;;;;4974481;28;20280;-84
2022/12/06 02:08:53;;;;;;;27.93;14.47;;;2.90;99.90;;;;;;4975575;28;20707;-86
2022/12/06 02:11:22;;;;;;;27.10;14.10;;;2.90;99.90;;;;;;4993910;28;20613;-84
2022/12/06 02:13:49;;;;;;;22.00;12.57;;;2.90;99.90;;;;;;4975515;28;20232;-83
2022/12/06 02:16:32;;;;;;;24.57;13.93;;;2.90;99.90;;;;;;4983949;28;20248;-84
2022/12/06 02:19:09;;;;;;;22.93;13.80;;;3.00;99.90;;;;;;4995329;28;20228;-86
2022/12/06 02:21:44;;;;;;;20.57;12.57;;;3.00;99.90;;;;;;4976009;28;20299;-86
2022/12/06 02:24:46;;;;;;;24.53;13.47;;;3.00;99.90;;;;;;4972111;28;20260;-84
2022/12/06 02:27:45;;;;;;;17.20;11.73;;;3.00;99.90;;;;;;4985112;28;20238;-85
2022/12/06 02:30:17;;;;;;;23.77;12.77;;;3.10;99.90;;;;;;4974201;28;20297;-85
2022/12/06 02:32:51;;;;;;;20.93;12.53;;;3.10;99.90;;;;;;4975639;28;20226;-84
2022/12/06 02:35:29;;;;;;;20.97;12.27;;;3.10;99.90;;;;;;4979918;28;20329;-84
2022/12/06 02:38:03;;;;;;;26.60;12.53;;;3.10;99.90;;;;;;4983880;28;20225;-84
2022/12/06 02:40:35;;;;;;;18.20;12.27;;;3.20;99.90;;;;;;4969760;28;20780;-84
2022/12/06 02:43:09;;;;;;;49.37;13.40;;;3.20;99.90;;;;;;4977863;28;20257;-84
2022/12/06 02:45:39;;;;;;;16.60;10.23;;;3.20;99.90;;;;;;4981438;28;20317;-85
2022/12/06 02:48:09;;;;;;;16.07;10.50;;;3.20;99.90;;;;;;4988408;28;20229;-84
2022/12/06 02:50:39;;;;;;;25.03;10.13;;;3.30;99.90;;;;;;4986284;28;20226;-85
2022/12/06 02:53:12;;;;;;;73.70;12.53;;;3.30;99.90;;;;;;4979198;28;20218;-84
2022/12/06 02:55:41;;;;;;;16.77;9.60;;;3.30;99.90;;;;;;4986459;28;20238;-86
2022/12/06 02:58:07;;;;;;;17.87;9.43;;;3.40;99.90;;;;;;4983273;28;20289;-84
2022/12/06 03:00:37;;;;;;;14.23;8.50;;;3.40;99.90;;;;;;4982709;28;20301;-83
2022/12/06 03:03:32;;;;;;;13.63;8.13;;;3.30;99.90;;;;;;4978227;28;20229;-83
2022/12/06 03:06:22;;;;;;;27.20;8.77;;;3.30;99.90;;;;;;4979834;28;20227;-82
2022/12/06 03:09:02;;;;;;;114.67;13.97;;;3.40;99.90;;;;;;4982108;28;21088;-82
2022/12/06 03:11:35;;;;;;;10.93;7.20;;;3.40;99.90;;;;;;4956091;28;20887;-83
2022/12/06 03:14:07;;;;;;;43.33;9.70;;;3.40;99.90;;;;;;4955574;28;20454;-83
2022/12/06 03:16:42;;;;;;;145.30;15.07;;;3.40;99.90;;;;;;4983526;28;20226;-84
2022/12/06 03:19:16;;;;;;;10.60;7.27;;;3.50;99.90;;;;;;4976688;28;20221;-83
2022/12/06 03:21:47;;;;;;;13.33;7.20;;;3.50;99.90;;;;;;4986013;28;20648;-83
2022/12/06 03:24:19;;;;;;;27.77;7.07;;;3.40;99.90;;;;;;4984069;28;20273;-84
2022/12/06 03:26:49;;;;;;;9.97;7.07;;;3.60;99.90;;;;;;4982046;28;20218;-85
2022/12/06 03:29:20;;;;;;;11.27;6.47;;;3.50;99.90;;;;;;4983540;28;20272;-84
2022/12/06 03:31:49;;;;;;;37.70;7.93;;;3.40;99.90;;;;;;4981256;28;20222;-83
2022/12/06 03:34:22;;;;;;;80.03;10.17;;;3.50;99.90;;;;;;4980246;28;20218;-83
2022/12/06 03:36:50;;;;;;;19.60;7.03;;;3.50;99.90;;;;;;4979757;28;20623;-84
2022/12/06 03:39:25;;;;;;;75.77;10.07;;;3.60;99.90;;;;;;4979055;28;20218;-84
2022/12/06 03:41:58;;;;;;;48.77;8.07;;;3.60;99.90;;;;;;4984605;28;20250;-84
2022/12/06 03:44:25;;;;;;;11.10;6.27;;;3.60;99.90;;;;;;4971145;28;20222;-82
2022/12/06 03:46:59;;;;;;;9.63;6.10;;;3.60;99.90;;;;;;4977654;28;20254;-82
2022/12/06 03:49:37;;;;;;;14.13;5.70;;;3.70;99.90;;;;;;4977386;28;20218;-84
2022/12/06 03:52:04;;;;;;;14.90;6.60;;;3.60;99.90;;;;;;4973697;28;20917;-84
2022/12/06 03:54:31;;;;;;;35.17;7.07;;;3.70;99.90;;;;;;4972394;28;20634;-82
2022/12/06 03:56:58;;;;;;;9.70;5.27;;;3.70;99.90;;;;;;4972440;28;20226;-83
2022/12/06 03:59:24;;;;;;;18.07;6.10;;;3.70;99.90;;;;;;4982047;28;20222;-83
2022/12/06 04:01:52;;;;;;;7.63;4.60;;;3.70;99.90;;;;;;4981410;28;20250;-83
2022/12/06 04:04:19;;;;;;;7.50;4.77;;;3.70;99.90;;;;;;4978835;28;20230;-82
2022/12/06 04:06:47;;;;;;;29.90;6.03;;;3.70;99.90;;;;;;4976434;28;20234;-81
2022/12/06 04:12:01;;;;;;;6.33;4.30;;;3.70;99.90;;;;;;4972083;28;20223;-81
2022/12/06 04:14:38;;;;;;;12.13;4.37;;;3.70;99.90;;;;;;4978202;28;20839;-80
2022/12/06 04:19:49;;;;;;;26.10;5.27;;;3.80;99.90;;;;;;4983291;28;20219;-80
2022/12/06 04:25:01;;;;;;;38.47;6.67;;;3.90;99.90;;;;;;4972031;28;20218;-80
2022/12/06 04:38:39;;;;;;;5.17;3.67;;;3.90;99.90;;;;;;4980908;28;20230;-82
2022/12/06 04:41:07;;;;;;;8.00;3.70;;;3.80;99.90;;;;;;4981021;28;20317;-81
2022/12/06 04:43:42;;;;;;;8.47;3.83;;;3.90;99.90;;;;;;4978639;28;21054;-81
2022/12/06 04:46:15;;;;;;;6.60;4.10;;;3.90;99.90;;;;;;4970505;28;20254;-81
2022/12/06 04:48:42;;;;;;;11.10;4.40;;;3.90;99.90;;;;;;4977954;28;20227;-81
2022/12/06 04:51:11;;;;;;;5.10;4.27;;;3.90;99.90;;;;;;4977005;28;20218;-81
2022/12/06 04:53:40;;;;;;;13.40;4.53;;;3.90;99.90;;;;;;4978756;28;20255;-81
2022/12/06 04:56:08;;;;;;;81.23;8.53;;;3.90;99.90;;;;;;4974004;28;20286;-82
2022/12/06 04:58:35;;;;;;;5.17;4.13;;;3.90;99.90;;;;;;4976259;28;21021;-81
2022/12/06 05:01:02;;;;;;;5.27;4.10;;;3.90;99.90;;;;;;4987850;28;20223;-81
2022/12/06 05:03:31;;;;;;;11.13;3.97;;;3.90;99.90;;;;;;4970904;28;20648;-80
2022/12/06 05:05:58;;;;;;;8.40;4.27;;;3.90;99.90;;;;;;4975510;28;20637;-81
2022/12/06 05:08:25;;;;;;;9.63;4.53;;;3.90;99.90;;;;;;4968461;28;20239;-81
2022/12/06 05:10:53;;;;;;;6.23;4.00;;;3.90;99.90;;;;;;4975515;28;20297;-81
2022/12/06 05:13:20;;;;;;;6.33;4.17;;;4.00;99.90;;;;;;4967577;28;20223;-82
2022/12/06 05:15:51;;;;;;;6.30;4.10;;;3.90;99.90;;;;;;4961219;28;20931;-81
2022/12/06 05:18:18;;;;;;;5.40;4.07;;;3.90;99.90;;;;;;4957448;28;20239;-81
2022/12/06 05:20:45;;;;;;;6.17;3.97;;;4.00;99.90;;;;;;4977976;28;20747;-81
2022/12/06 05:23:14;;;;;;;5.30;3.80;;;3.90;99.90;;;;;;4990850;28;20309;-82
2022/12/06 05:25:41;;;;;;;35.30;6.00;;;3.90;99.90;;;;;;4976340;28;20297;-81
2022/12/06 05:28:09;;;;;;;5.97;3.80;;;3.90;99.90;;;;;;4973015;28;20218;-82
2022/12/06 05:30:36;;;;;;;17.17;5.10;;;3.90;99.90;;;;;;4981304;28;20227;-81
2022/12/06 05:33:03;;;;;;;77.60;8.00;;;3.90;99.90;;;;;;4978032;28;20243;-80
2022/12/06 05:35:30;;;;;;;11.47;6.30;;;3.90;99.90;;;;;;4974364;28;20229;-84
2022/12/06 05:37:57;;;;;;;76.43;8.93;;;3.90;99.90;;;;;;4969276;28;20230;-82
2022/12/06 05:40:24;;;;;;;22.60;5.10;;;3.90;99.90;;;;;;4971378;28;20319;-81
2022/12/06 05:42:51;;;;;;;74.30;8.77;;;3.90;99.90;;;;;;4975206;28;20316;-83
2022/12/06 05:45:19;;;;;;;18.80;5.57;;;3.90;99.90;;;;;;4969799;28;20302;-82
2022/12/06 05:47:49;;;;;;;21.77;5.47;;;3.90;99.90;;;;;;4975140;28;20226;-81
2022/12/06 05:50:16;;;;;;;26.57;5.30;;;3.90;99.90;;;;;;4975190;28;20227;-82
2022/12/06 05:52:43;;;;;;;32.33;5.37;;;3.90;99.90;;;;;;4975036;28;20255;-81
2022/12/06 05:55:10;;;;;;;21.63;5.30;;;3.80;99.90;;;;;;4974607;28;20226;-83
2022/12/06 05:57:37;;;;;;;32.70;6.03;;;3.90;99.90;;;;;;4972727;28;20235;-81
2022/12/06 06:00:05;;;;;;;33.23;6.43;;;3.90;99.90;;;;;;4979347;28;20224;-81
2022/12/06 06:02:37;;;;;;;15.07;5.10;;;3.90;99.90;;;;;;4981286;28;20264;-82
2022/12/06 06:05:04;;;;;;;64.77;7.87;;;3.90;99.90;;;;;;4978051;28;20235;-80
2022/12/06 06:07:31;;;;;;;8.70;4.63;;;3.90;99.90;;;;;;4968458;28;20848;-81
2022/12/06 06:09:58;;;;;;;32.93;5.80;;;3.90;99.90;;;;;;4980760;28;20215;-80
2022/12/06 06:12:24;;;;;;;9.50;4.80;;;3.90;99.90;;;;;;4982555;28;20231;-82
2022/12/06 06:14:52;;;;;;;13.17;5.40;;;3.80;99.90;;;;;;4982562;28;20611;-82
2022/12/06 06:17:19;;;;;;;19.70;5.20;;;3.80;99.90;;;;;;4988976;28;20246;-83
2022/12/06 06:19:47;;;;;;;7.53;4.27;;;3.80;99.90;;;;;;4976351;28;20895;-82
2022/12/06 06:22:14;;;;;;;7.30;4.37;;;3.90;99.90;;;;;;4983249;28;20971;-83
2022/12/06 06:24:45;;;;;;;6.87;3.90;;;3.90;99.90;;;;;;4980218;28;20343;-81
2022/12/06 06:27:12;;;;;;;5.73;4.20;;;3.90;99.90;;;;;;4979784;28;20595;-82
2022/12/06 06:29:39;;;;;;;6.57;4.90;;;3.90;99.90;;;;;;4981179;28;20304;-82
2022/12/06 06:32:05;;;;;;;9.50;4.30;;;3.90;99.90;;;;;;4980231;28;20294;-81
2022/12/06 06:34:32;;;;;;;7.27;4.17;;;3.90;99.90;;;;;;4981024;28;20310;-82
2022/12/06 06:37:00;;;;;;;7.80;4.10;;;3.90;99.90;;;;;;4959231;28;20258;-81
2022/12/06 06:39:27;;;;;;;16.67;5.10;;;3.80;99.90;;;;;;4952613;28;20703;-82
2022/12/06 06:41:54;;;;;;;12.87;4.60;;;3.90;99.90;;;;;;4970455;28;20246;-82
2022/12/06 06:44:20;;;;;;;16.27;4.50;;;3.90;99.90;;;;;;4977237;28;20238;-82
2022/12/06 06:46:47;;;;;;;6.73;3.40;;;3.80;99.90;;;;;;4979232;28;20639;-82
2022/12/06 06:49:14;;;;;;;4.70;3.60;;;3.80;99.90;;;;;;4979090;28;20231;-81
2022/12/06 06:51:41;;;;;;;5.10;3.50;;;3.90;99.90;;;;;;4976811;28;20311;-82
2022/12/06 06:54:09;;;;;;;12.87;4.13;;;3.90;99.90;;;;;;4982662;28;20761;-83
2022/12/06 06:56:36;;;;;;;9.50;3.83;;;3.90;99.90;;;;;;4976521;28;20259;-83
2022/12/06 06:59:03;;;;;;;4.13;3.47;;;3.80;99.90;;;;;;4979153;28;20273;-82
2022/12/06 07:01:30;;;;;;;4.17;3.40;;;3.80;99.90;;;;;;4976297;28;20241;-85
2022/12/06 07:03:57;;;;;;;15.97;3.87;;;3.80;99.90;;;;;;4973750;28;20253;-83
2022/12/06 07:06:24;;;;;;;6.07;2.97;;;3.80;99.90;;;;;;4978150;28;20294;-85
2022/12/06 07:08:50;;;;;;;4.20;3.33;;;3.90;99.90;;;;;;4979096;28;20227;-84
2022/12/06 07:11:18;;;;;;;4.57;3.17;;;3.90;99.90;;;;;;4998620;28;20217;-83
2022/12/06 07:13:46;;;;;;;6.07;3.23;;;3.80;99.90;;;;;;4981945;28;20237;-84
2022/12/06 07:16:15;;;;;;;6.07;3.37;;;3.80;99.90;;;;;;4980770;28;20456;-82
2022/12/06 07:18:43;;;;;;;5.07;3.60;;;3.80;99.90;;;;;;4992729;28;20233;-84
2022/12/06 07:21:13;;;;;;;7.07;4.73;;;3.80;99.90;;;;;;4982522;28;20210;-85
2022/12/06 07:23:39;;;;;;;38.77;21.80;;;3.70;99.90;;;;;;4976629;28;20238;-84
2022/12/06 07:26:09;;;;;;;7.77;4.77;;;3.80;99.90;;;;;;4980261;28;20239;-82
2022/12/06 07:28:38;;;;;;;6.80;4.57;;;3.80;99.90;;;;;;4981995;28;20249;-83
2022/12/06 07:31:09;;;;;;;3.97;3.17;;;3.70;99.90;;;;;;4984081;28;20222;-82
2022/12/06 07:33:46;;;;;;;30.60;13.77;;;3.70;99.90;;;;;;4976768;28;20226;-83
2022/12/06 07:36:17;;;;;;;11.00;4.00;;;3.70;99.90;;;;;;4982832;28;20236;-83
2022/12/06 07:38:48;;;;;;;7.77;5.73;;;3.70;99.90;;;;;;4978001;28;20232;-81
2022/12/06 07:46:47;;;;;;;15.00;6.47;;;3.60;99.90;;;;;;4977217;28;20226;-81
2022/12/06 07:49:15;;;;;;;35.97;16.43;;;3.60;99.90;;;;;;4980168;28;20703;-80
2022/12/06 07:51:45;;;;;;;5.73;4.30;;;3.60;99.90;;;;;;4992986;28;20246;-80
2022/12/06 07:54:12;;;;;;;5.57;3.50;;;3.70;99.90;;;;;;4977551;28;20250;-80
2022/12/06 07:56:39;;;;;;;17.17;12.03;;;3.60;99.90;;;;;;4978452;28;20229;-80
2022/12/06 07:59:08;;;;;;;9.10;4.77;;;3.60;99.90;;;;;;4969923;28;20637;-79
2022/12/06 08:01:34;;;;;;;4.53;3.33;;;3.60;99.90;;;;;;4983739;28;20237;-79
2022/12/06 08:04:03;;;;;;;20.43;4.27;;;3.60;99.90;;;;;;4973187;28;20281;-80
2022/12/06 08:06:32;;;;;;;6.23;3.93;;;3.60;99.90;;;;;;4970702;28;20230;-80
2022/12/06 08:08:59;;;;;;;6.63;4.63;;;3.60;99.90;;;;;;4977500;28;20252;-80
2022/12/06 08:11:27;;;;;;;6.90;4.10;;;3.60;99.90;;;;;;4967899;28;20241;-81
2022/12/06 08:13:54;;;;;;;5.83;4.03;;;3.60;99.90;;;;;;4974090;28;20215;-79
2022/12/06 08:16:22;;;;;;;7.47;5.97;;;3.70;99.90;;;;;;4975710;28;20261;-80
2022/12/06 08:18:49;;;;;;;5.57;3.87;;;3.70;99.90;;;;;;4967197;28;20234;-82
2022/12/06 08:21:16;;;;;;;8.40;5.00;;;3.60;99.90;;;;;;4960652;28;20235;-82
2022/12/06 08:23:43;;;;;;;11.77;4.20;;;3.70;99.90;;;;;;4952799;28;20739;-82
2022/12/06 08:26:13;;;;;;;6.00;4.07;;;3.70;99.90;;;;;;4959963;28;20223;-81
2022/12/06 08:28:40;;;;;;;7.13;4.10;;;3.70;99.90;;;;;;4983684;28;20217;-81
2022/12/06 08:31:08;;;;;;;8.50;7.00;;;3.70;99.90;;;;;;4980384;28;20230;-80
2022/12/06 08:33:37;;;;;;;11.50;10.50;;;3.80;99.90;;;;;;4984164;28;20786;-81
2022/12/06 08:36:09;;;;;;;25.20;5.37;;;3.80;99.90;;;;;;4977238;28;20608;-81
2022/12/06 08:38:37;;;;;;;5.60;4.50;;;3.80;99.90;;;;;;4980553;28;20323;-81
2022/12/06 08:41:54;;;;;;;9.30;4.63;;;3.80;99.90;;;;;;4980267;28;20230;-81
2022/12/06 08:43:52;;;;;;;6.00;5.30;;;3.80;99.90;;;;;;4985125;28;20631;-81
2022/12/06 08:46:22;;;;;;;6.83;5.27;;;3.80;99.90;;;;;;4965740;28;20233;-81
2022/12/06 08:48:50;;;;;;;5.33;4.67;;;3.80;99.90;;;;;;4970303;28;20232;-83
2022/12/06 08:51:18;;;;;;;6.40;5.37;;;3.80;99.90;;;;;;4977519;28;20233;-82
2022/12/06 08:53:44;;;;;;;7.03;5.03;;;3.80;99.90;;;;;;4980199;28;20235;-82
2022/12/06 08:56:11;;;;;;;6.73;5.20;;;3.80;99.90;;;;;;4963294;28;20259;-82
2022/12/06 08:58:38;;;;;;;6.10;5.07;;;3.80;99.90;;;;;;4982024;28;20234;-82
2022/12/06 09:01:11;;;;;;;7.17;4.87;;;3.90;99.90;;;;;;4978457;28;20707;-82
2022/12/06 09:03:38;;;;;;;5.63;4.80;;;3.80;99.90;;;;;;4983387;28;20239;-83
2022/12/06 09:06:07;;;;;;;6.20;5.13;;;3.80;99.90;;;;;;4984774;28;20230;-82
2022/12/06 09:08:34;;;;;;;6.63;4.93;;;3.80;99.90;;;;;;4981033;28;20678;-82
2022/12/06 09:11:01;;;;;;;6.83;5.50;;;3.80;99.90;;;;;;4975083;28;20222;-82
2022/12/06 09:13:28;;;;;;;7.40;5.47;;;3.80;99.90;;;;;;4977436;28;20229;-82
2022/12/06 09:15:58;;;;;;;6.50;5.60;;;3.80;99.90;;;;;;4973987;28;20246;-82
2022/12/06 09:18:24;;;;;;;7.03;5.93;;;3.80;99.90;;;;;;4974210;28;20223;-82
2022/12/06 09:20:51;;;;;;;11.37;6.07;;;3.80;99.90;;;;;;4982622;28;20237;-82
2022/12/06 09:23:19;;;;;;;14.17;6.50;;;3.80;99.90;;;;;;4970803;28;20238;-82
2022/12/06 09:25:46;;;;;;;7.70;5.27;;;3.80;99.90;;;;;;4982877;28;20400;-83
2022/12/06 09:28:13;;;;;;;6.50;5.20;;;3.80;99.90;;;;;;4979072;28;20223;-82
2022/12/06 09:30:41;;;;;;;7.13;5.40;;;3.80;99.90;;;;;;4958925;28;20233;-82
2022/12/06 09:33:08;;;;;;;6.57;4.77;;;3.80;99.90;;;;;;4966708;28;20247;-81
2022/12/06 09:35:36;;;;;;;6.87;5.00;;;3.80;99.90;;;;;;4967225;28;20233;-82
2022/12/06 09:38:03;;;;;;;7.03;5.50;;;3.80;99.90;;;;;;4961101;28;20730;-82
2022/12/06 09:40:34;;;;;;;6.87;5.40;;;3.80;99.90;;;;;;4979823;28;20230;-82
2022/12/06 09:43:15;;;;;;;6.40;5.13;;;3.80;99.90;;;;;;4987026;28;20228;-82
2022/12/06 09:46:09;;;;;;;8.83;6.00;;;3.80;99.90;;;;;;4974749;28;20239;-83
2022/12/06 09:49:01;;;;;;;7.40;5.80;;;3.80;99.90;;;;;;4974553;28;20237;-83
2022/12/06 09:51:45;;;;;;;6.67;5.00;;;3.80;99.90;;;;;;4977757;28;20290;-82
2022/12/06 09:54:25;;;;;;;8.40;5.50;;;3.80;99.90;;;;;;4984085;28;20314;-82
2022/12/06 09:56:58;;;;;;;7.70;5.40;;;3.80;99.90;;;;;;4979433;28;20237;-82
2022/12/06 09:59:33;;;;;;;6.93;5.37;;;3.80;99.90;;;;;;4984952;28;20325;-82
2022/12/06 10:02:18;;;;;;;7.07;5.80;;;3.80;99.90;;;;;;4977106;28;20222;-82
2022/12/06 10:04:56;;;;;;;7.30;5.80;;;3.80;99.90;;;;;;4974693;28;20425;-82
2022/12/06 10:07:31;;;;;;;7.63;5.53;;;3.80;99.90;;;;;;4975678;28;20257;-82
2022/12/06 10:10:12;;;;;;;8.57;6.50;;;3.80;99.90;;;;;;4979354;28;20222;-82
2022/12/06 10:13:02;;;;;;;7.23;5.50;;;3.80;99.90;;;;;;4972179;28;20226;-81
2022/12/06 10:15:39;;;;;;;9.03;6.07;;;3.80;99.90;;;;;;4979790;28;20236;-83
2022/12/06 10:18:23;;;;;;;25.13;7.23;;;3.90;99.90;;;;;;4987703;28;20229;-82
2022/12/06 10:20:57;;;;;;;9.90;6.23;;;3.90;99.90;;;;;;4980687;28;20241;-82
2022/12/06 10:23:38;;;;;;;9.97;6.20;;;3.90;99.90;;;;;;4982401;28;20335;-82
2022/12/06 10:26:13;;;;;;;9.80;6.17;;;3.90;99.90;;;;;;4972343;28;20427;-83
2022/12/06 10:28:46;;;;;;;9.13;6.57;;;3.90;99.90;;;;;;4986586;28;20268;-82
2022/12/06 10:31:21;;;;;;;8.73;5.83;;;3.90;99.90;;;;;;4979978;28;20243;-81
2022/12/06 10:33:54;;;;;;;9.03;6.33;;;3.90;99.90;;;;;;4985055;28;20224;-82
2022/12/06 10:36:33;;;;;;;9.80;6.67;;;3.90;99.90;;;;;;4981374;28;20753;-82
2022/12/06 10:39:06;;;;;;;9.03;6.77;;;3.90;99.90;;;;;;4977979;28;20339;-83
2022/12/06 10:41:39;;;;;;;10.03;7.13;;;4.00;99.90;;;;;;4985912;28;20265;-82
2022/12/06 10:44:16;;;;;;;10.10;6.87;;;4.00;99.90;;;;;;4988098;28;20742;-82
2022/12/06 10:47:05;;;;;;;10.43;7.30;;;4.00;99.90;;;;;;4971255;28;20692;-82
2022/12/06 10:49:44;;;;;;;11.33;6.93;;;4.00;99.90;;;;;;4984355;28;20265;-79
2022/12/06 10:52:22;;;;;;;11.60;7.47;;;4.00;99.90;;;;;;4978372;28;20230;-82
2022/12/06 10:54:57;;;;;;;11.17;8.07;;;4.00;99.90;;;;;;4971166;28;20247;-82
2022/12/06 10:57:32;;;;;;;10.33;6.80;;;4.00;99.90;;;;;;4986040;28;20227;-80
2022/12/06 11:00:04;;;;;;;11.83;7.80;;;3.90;99.90;;;;;;4979708;28;20274;-79
2022/12/06 11:02:38;;;;;;;9.13;7.40;;;4.00;99.90;;;;;;4968957;28;20833;-79
2022/12/06 11:05:16;;;;;;;13.23;7.97;;;3.90;99.90;;;;;;4976699;28;20227;-79
2022/12/06 11:07:46;;;;;;;13.27;8.17;;;3.90;99.90;;;;;;4984906;28;20234;-80
2022/12/06 11:10:20;;;;;;;11.43;8.13;;;3.90;99.90;;;;;;4987935;28;20314;-80
2022/12/06 11:12:49;;;;;;;11.97;7.97;;;3.90;99.90;;;;;;4980246;28;20230;-80
2022/12/06 11:15:20;;;;;;;11.67;8.57;;;3.90;99.90;;;;;;4976443;28;20231;-80
2022/12/06 11:17:52;;;;;;;12.13;8.13;;;3.90;99.90;;;;;;4975007;28;20242;-81
2022/12/06 11:20:26;;;;;;;12.33;8.40;;;3.90;99.90;;;;;;4986084;28;20238;-79
2022/12/06 11:23:06;;;;;;;16.27;8.23;;;3.90;99.90;;;;;;4984959;28;20234;-80
2022/12/06 11:25:40;;;;;;;12.07;7.73;;;3.90;99.90;;;;;;4981011;28;20718;-80
2022/12/06 11:28:20;;;;;;;16.57;9.17;;;3.90;99.90;;;;;;4970414;28;20222;-81
2022/12/06 11:30:49;;;;;;;14.50;9.00;;;3.90;99.90;;;;;;4981281;28;20226;-82
2022/12/06 11:33:17;;;;;;;15.07;9.73;;;3.90;99.90;;;;;;4972732;28;20231;-81
2022/12/06 11:35:45;;;;;;;14.57;8.97;;;3.90;99.90;;;;;;4982700;28;20238;-81
2022/12/06 11:38:15;;;;;;;14.87;9.90;;;3.90;99.90;;;;;;4979667;28;20222;-80
2022/12/06 11:40:49;;;;;;;15.63;9.87;;;3.90;99.90;;;;;;4976553;28;20833;-81
2022/12/06 11:43:20;;;;;;;47.17;25.50;;;3.90;99.90;;;;;;4983738;28;20243;-80
2022/12/06 11:45:49;;;;;;;16.13;11.57;;;3.90;99.90;;;;;;4972635;28;20341;-82
2022/12/06 11:48:18;;;;;;;13.63;8.63;;;3.90;99.90;;;;;;4968086;28;20790;-80
2022/12/06 11:50:47;;;;;;;14.67;8.80;;;3.90;99.90;;;;;;4977647;28;20675;-79
2022/12/06 11:53:21;;;;;;;13.83;9.17;;;4.00;99.90;;;;;;4964480;28;20220;-79
2022/12/06 11:55:54;;;;;;;13.27;9.20;;;4.00;99.90;;;;;;4981277;28;20793;-81
2022/12/06 11:58:28;;;;;;;11.87;8.27;;;3.90;99.90;;;;;;4981364;28;20237;-80
2022/12/06 12:01:00;;;;;;;11.70;8.37;;;3.90;99.90;;;;;;4967250;28;20223;-80
2022/12/06 12:03:29;;;;;;;13.10;9.20;;;3.90;99.90;;;;;;4971730;28;20250;-80
2022/12/06 12:06:16;;;;;;;11.60;8.67;;;3.90;99.90;;;;;;4970229;28;20232;-80
2022/12/06 12:08:58;;;;;;;13.43;8.67;;;3.90;99.90;;;;;;4945793;29;20314;-80
2022/12/06 12:11:28;;;;;;;13.10;8.97;;;3.90;99.90;;;;;;4957410;28;20228;-81
2022/12/06 12:13:59;;;;;;;12.57;8.30;;;3.90;99.90;;;;;;4974362;28;20687;-81
2022/12/06 12:16:32;;;;;;;12.63;8.27;;;3.90;99.90;;;;;;4963902;28;20282;-81
2022/12/06 12:19:03;;;;;;;11.40;8.73;;;3.80;99.90;;;;;;4978648;28;20312;-79
2022/12/06 12:21:33;;;;;;;11.63;8.40;;;3.90;99.90;;;;;;4976805;28;20324;-80
2022/12/06 12:24:00;;;;;;;12.83;8.50;;;3.80;99.90;;;;;;4944270;28;20229;-80
2022/12/06 12:26:36;;;;;;;12.37;8.23;;;3.80;99.90;;;;;;4948806;28;20227;-81
2022/12/06 12:29:14;;;;;;;14.17;8.70;;;3.80;99.90;;;;;;4964507;28;20234;-81
2022/12/06 12:31:52;;;;;;;11.83;8.17;;;3.80;99.90;;;;;;4959650;28;20230;-79
2022/12/06 12:34:21;;;;;;;10.80;7.53;;;3.80;99.90;;;;;;4968899;28;20763;-80
2022/12/06 12:36:50;;;;;;;12.07;8.20;;;3.80;99.90;;;;;;4975239;28;20254;-79
2022/12/06 12:39:26;;;;;;;10.83;7.00;;;3.80;99.90;;;;;;4972415;28;20700;-81
2022/12/06 12:41:52;;;;;;;11.80;8.10;;;3.80;99.90;;;;;;4972160;28;20233;-79
2022/12/06 12:44:24;;;;;;;11.83;8.20;;;3.80;99.90;;;;;;4981162;28;20230;-81
2022/12/06 12:46:55;;;;;;;12.23;8.13;;;3.80;99.90;;;;;;4980873;28;20227;-81
2022/12/06 12:49:26;;;;;;;10.50;7.27;;;3.80;99.90;;;;;;4982982;28;20250;-81
2022/12/06 12:51:53;;;;;;;10.53;7.93;;;3.80;99.90;;;;;;4975972;28;20239;-80
2022/12/06 12:54:24;;;;;;;11.50;7.57;;;3.80;99.90;;;;;;4972534;28;20337;-81
2022/12/06 12:56:51;;;;;;;10.50;7.97;;;3.80;99.90;;;;;;4982284;28;20344;-79
2022/12/06 12:59:20;;;;;;;11.50;8.40;;;3.80;99.90;;;;;;4983811;28;20670;-81
2022/12/06 13:01:51;;;;;;;12.57;7.87;;;3.80;99.90;;;;;;4972158;28;20553;-80
2022/12/06 13:04:32;;;;;;;12.60;8.57;;;3.70;99.90;;;;;;4964499;28;20318;-79
2022/12/06 13:07:02;;;;;;;12.93;8.20;;;3.80;99.90;;;;;;4969921;28;20245;-80
2022/12/06 13:09:38;;;;;;;12.97;8.13;;;3.80;99.90;;;;;;4965027;28;20236;-81
2022/12/06 13:12:11;;;;;;;13.33;9.00;;;3.80;99.90;;;;;;4972026;28;20219;-81
2022/12/06 13:14:40;;;;;;;19.00;9.07;;;3.80;99.90;;;;;;4965325;28;20235;-80
2022/12/06 13:17:11;;;;;;;12.50;8.07;;;3.70;99.90;;;;;;4975212;28;20233;-79
2022/12/06 13:19:44;;;;;;;12.17;8.03;;;3.80;99.90;;;;;;4988514;28;20224;-81
2022/12/06 13:22:18;;;;;;;11.23;7.40;;;3.80;99.90;;;;;;4970445;28;20546;-80
2022/12/06 13:24:50;;;;;;;16.67;8.17;;;3.80;99.90;;;;;;4981648;28;20317;-80
2022/12/06 13:27:20;;;;;;;10.77;8.17;;;3.70;99.90;;;;;;4978016;28;20645;-78
2022/12/06 13:29:54;;;;;;;11.07;8.13;;;3.70;99.90;;;;;;4966951;28;20230;-80
2022/12/06 13:32:27;;;;;;;14.00;9.63;;;3.60;99.90;;;;;;4967003;28;20281;-79